Flight Track Log - Related Links

Times and Time Zones

All times are in EDT time to prevent confusion due to time zone crossing. See the N991BD flight status page for this flight to view local times or setup timezone preferences in your user account.

Time Position Orientation Groundspeed Altitude Reporting Facility
EDT Latitude Longitude Course Direction KTS MPH feet Rate Location/Type
Fri 03:55:04 PM 39.5625 -84.2539 317° Northwest 112 129 2,200  Level Indianapolis Center
Fri 03:56:17 PM 39.5950 -84.2933 317° Northwest 140 161 3,400 966 Climbing Indianapolis Center
Fri 03:57:02 PM 39.6192 -84.3178 322° Northwest 138 159 4,100 885 Climbing Indianapolis Center
Fri 03:57:18 PM 39.6258 -84.3272 313° West 147 169 4,300 871 Climbing Indianapolis Center
Fri 03:58:04 PM 39.6500 -84.3531 321° Northwest 143 165 5,000 885 Climbing Indianapolis Center
Fri 03:58:19 PM 39.6567 -84.3614 316° Northwest 149 171 5,200 968 Climbing Indianapolis Center
Fri 03:59:06 PM 39.6800 -84.3903 316° Northwest 146 168 6,000 936 Climbing Indianapolis Center
Fri 04:00:08 PM 39.7086 -84.4317 312° West 151 174 6,900 923 Climbing Indianapolis Center
Fri 04:01:16 PM 39.7450 -84.4844 312° West 162 186 8,000 1,016 Climbing Indianapolis Center
Fri 04:02:12 PM 39.7644 -84.5214 304° West 159 183 9,000 966 Climbing Indianapolis Center
Fri 04:03:14 PM 39.7886 -84.5667 305° West 154 177 9,900 472 Climbing Indianapolis Center
Fri 04:04:19 PM 39.8214 -84.6283 305° West 187 215 10,000 49 Climbing Indianapolis Center
Fri 04:05:17 PM 39.8525 -84.6819 307° West 184 212 10,000  Level Indianapolis Center
Fri 04:06:19 PM 39.8836 -84.7358 307° West 185 213 10,000  Level Indianapolis Center
Fri 04:07:21 PM 39.9150 -84.7883 308° West 185 213 10,000  Level Indianapolis Center
Fri 04:08:16 PM 39.9444 -84.8386 307° West 186 214 10,000 -40 Level Indianapolis Center
Fri 04:09:52 PM 39.9925 -84.9239 306° West 185 213 9,900  Descending Chicago Center
Fri 04:10:17 PM 40.0081 -84.9514 306° West 187 215 10,000 62 Climbing Indianapolis Center
Fri 04:11:29 PM 40.0422 -85.0119 306° West 187 215 10,000  Level Indianapolis Center
Fri 04:12:19 PM 40.0683 -85.0583 306° West 183 211 10,000  Level Indianapolis Center
Fri 04:13:26 PM 40.1008 -85.1178 306° West 189 217 10,000  Level Indianapolis Center
Fri 04:14:26 PM 40.1317 -85.1742 306° West 192 221 10,000 99 Level Indianapolis Center
Fri 04:15:27 PM 40.1642 -85.2336 306° West 184 212 10,200  Climbing Indianapolis Center
Fri 04:16:38 PM 40.2000 -85.2981 306° West 190 219 10,000 90 Descending Indianapolis Center
Fri 04:17:40 PM 40.2289 -85.3508 306° West 182 209 10,400 435 Climbing Indianapolis Center
Fri 04:18:42 PM 40.2567 -85.3981 308° West 170 196 10,900 527 Climbing Indianapolis Center
Fri 04:19:11 PM 40.2681 -85.4161 310° West 170 196 11,200 593 Climbing Chicago Center
Fri 04:20:13 PM 40.2992 -85.4703 307° West 160 184 11,800 484 Climbing Chicago Center
Fri 04:21:15 PM 40.3261 -85.5156 308° West 158 182 12,200 194 Climbing Chicago Center
Fri 04:22:17 PM 40.3608 -85.5608 315° West 173 199 12,200  Level Chicago Center
Fri 04:23:19 PM 40.3989 -85.6114 315° West 192 221 12,200 -38 Level Chicago Center
Fri 04:24:53 PM 40.4583 -85.6986 312° West 199 229 12,100  Descending Indianapolis Center
Fri 04:25:23 PM 40.4814 -85.7292 315° West 202 232 12,200 65 Climbing Chicago Center
Fri 04:26:25 PM 40.5200 -85.7833 313° West 204 235 12,200  Level Chicago Center
Fri 04:27:27 PM 40.5589 -85.8367 314° West 204 235 12,200  Level Chicago Center
Fri 04:28:29 PM 40.5969 -85.8928 312° West 206 237 12,200  Level Chicago Center
Fri 04:29:31 PM 40.6322 -85.9497 309° West 203 234 12,200  Level Chicago Center
Fri 04:30:34 PM 40.6675 -86.0067 309° West 202 232 12,200  Level Chicago Center
Fri 04:31:36 PM 40.7050 -86.0736 306° West 204 235 12,200 -48 Level Chicago Center
Fri 04:32:38 PM 40.7333 -86.1394 300° West 207 238 12,100 -48 Descending Chicago Center
Fri 04:33:40 PM 40.7656 -86.2011 305° West 204 235 12,100  Level Chicago Center
Fri 04:34:42 PM 40.7889 -86.2800 291° West 193 222 12,100 48 Level Chicago Center
Fri 04:35:44 PM 40.8028 -86.3475 285° West 191 220 12,200  Climbing Chicago Center
Fri 04:36:46 PM 40.8200 -86.4178 288° West 198 228 12,100 -48 Descending Chicago Center
Fri 04:37:48 PM 40.8381 -86.4856 289° West 197 227 12,100  Level Chicago Center
Fri 04:38:50 PM 40.8522 -86.5569 285° West 200 230 12,100  Level Chicago Center
Fri 04:39:52 PM 40.8628 -86.6253 282° West 194 223 12,100  Level Chicago Center
Fri 04:40:55 PM 40.8750 -86.7092 281° West 194 223 12,100 -48 Level Chicago Center
Fri 04:41:57 PM 40.8858 -86.7781 282° West 192 221 12,000 -48 Descending Chicago Center
Fri 04:42:59 PM 40.9050 -86.8400 292° West 186 214 12,000 48 Level Chicago Center
Fri 04:44:01 PM 40.9208 -86.9072 287° West 190 219 12,100 48 Climbing Chicago Center
Fri 04:45:03 PM 40.9375 -86.9719 289° West 189 217 12,100  Level Chicago Center
Fri 04:46:05 PM 40.9569 -87.0508 288° West 189 217 12,100  Level Chicago Center
Fri 04:47:07 PM 40.9739 -87.1161 289° West 188 216 12,100 48 Level Chicago Center
Fri 04:48:09 PM 40.9917 -87.1833 289° West 192 221 12,200 48 Climbing Chicago Center
Fri 04:49:11 PM 41.0089 -87.2483 289° West 189 217 12,200  Level Chicago Center
Fri 04:50:13 PM 41.0256 -87.3161 288° West 193 222 12,200  Level Chicago Center
Fri 04:51:16 PM 41.0469 -87.3958 290° West 192 221 12,200  Level Chicago Center
Fri 04:52:18 PM 41.0647 -87.4636 289° West 194 223 12,200  Level Chicago Center
Fri 04:53:20 PM 41.0814 -87.5317 288° West 196 226 12,200  Level Chicago Center
Fri 04:54:22 PM 41.0986 -87.5994 289° West 193 222 12,200  Level Chicago Center
Fri 04:55:24 PM 41.1158 -87.6675 289° West 196 226 12,200  Level Chicago Center
Fri 04:56:26 PM 41.1339 -87.7361 289° West 197 227 12,200  Level Chicago Center
Fri 04:57:28 PM 41.1544 -87.8194 288° West 198 228 12,200  Level Chicago Center
Fri 04:58:30 PM 41.1714 -87.8889 288° West 198 228 12,200  Level Chicago Center
Fri 04:59:32 PM 41.1903 -87.9589 290° West 200 230 12,200  Level Chicago Center
Fri 05:00:34 PM 41.2072 -88.0294 288° West 200 230 12,200  Level Chicago Center
Fri 05:01:37 PM 41.2253 -88.1000 289° West 201 231 12,200 -48 Level Chicago Center
Fri 05:02:39 PM 41.2419 -88.1711 287° West 200 230 12,100 -48 Descending Chicago Center
Fri 05:03:41 PM 41.2625 -88.2575 288° West 204 235 12,100  Level Chicago Center
Fri 05:04:43 PM 41.2806 -88.3272 289° West 200 230 12,100  Level Chicago Center
Fri 05:05:45 PM 41.2975 -88.3978 288° West 201 231 12,100  Level Chicago Center
Fri 05:06:47 PM 41.3147 -88.4689 288° West 200 230 12,100  Level Chicago Center
Fri 05:07:49 PM 41.3322 -88.5397 288° West 201 231 12,100  Level Chicago Center
Fri 05:08:51 PM 41.3372 -88.6097 275° West 193 222 12,100  Level Chicago Center
Fri 05:09:53 PM 41.3350 -88.6969 268° West 195 224 12,100 -48 Level Chicago Center
Fri 05:10:55 PM 41.3367 -88.7700 272° West 197 227 12,000  Descending Chicago Center
Fri 05:11:57 PM 41.3900 -88.8061 333° Northwest 211 243 12,100 48 Climbing Chicago Center
Fri 05:12:59 PM 41.4461 -88.8269 344° North 209 241 12,100 -48 Level Chicago Center
Fri 05:14:01 PM 41.5031 -88.8531 341° North 215 247 12,000  Descending Chicago Center
Fri 05:15:04 PM 41.5600 -88.8828 339° North 219 252 12,100 48 Climbing Chicago Center
Fri 05:16:06 PM 41.6278 -88.9131 342° North 215 247 12,100  Level Chicago Center
Fri 05:17:08 PM 41.6844 -88.9372 342° North 215 247 12,100  Level Chicago Center
Fri 05:18:10 PM 41.7417 -88.9311 North 207 238 12,100  Level Chicago Center
Fri 05:19:12 PM 41.7958 -88.9103 16° North 202 232 12,100 -48 Level Chicago Center
Fri 05:20:14 PM 41.8531 -88.9003 North 208 239 12,000  Descending Chicago Center
Fri 05:21:16 PM 41.9092 -88.8911 North 204 235 12,100 48 Climbing Chicago Center
Fri 05:22:18 PM 41.9767 -88.8764 North 204 235 12,100  Level Chicago Center
Fri 05:23:19 PM 42.0342 -88.8647 North 207 238 12,100  Level Chicago Center
Fri 05:24:21 PM 42.0881 -88.8528 North 206 237 12,100  Level Chicago Center
Fri 05:25:23 PM 42.1453 -88.8389 10° North 208 239 12,100  Level Chicago Center
Fri 05:26:25 PM 42.2042 -88.8286 North 206 237 12,100  Level Chicago Center
Fri 05:27:27 PM 42.2606 -88.8181 North 206 237 12,100 -97 Level Chicago Center
Fri 05:28:29 PM 42.3286 -88.8019 10° North 209 241 11,900 -242 Descending Chicago Center
Fri 05:29:31 PM 42.3839 -88.7908 North 213 245 11,600 -290 Descending Chicago Center
Fri 05:30:33 PM 42.4431 -88.7781 North 215 247 11,300 -387 Descending Chicago Center
Fri 05:31:35 PM 42.5128 -88.7622 10° North 216 249 10,800 -532 Descending Chicago Center
Fri 05:32:37 PM 42.5744 -88.7481 10° North 221 254 10,200 -629 Descending Chicago Center
Fri 05:33:39 PM 42.6375 -88.7358 North 227 261 9,500 -532 Descending Chicago Center
Fri 05:34:41 PM 42.7006 -88.7208 10° North 229 264 9,100 -435 Descending Chicago Center
Fri 05:35:43 PM 42.7600 -88.7081 North 220 253 8,600 -532 Descending Chicago Center
Fri 05:36:45 PM 42.8219 -88.6947 North 222 255 8,000 -290 Descending Chicago Center
Fri 05:37:47 PM 42.8914 -88.6828 North 217 250 8,000  Level Chicago Center
Fri 05:38:49 PM 42.9467 -88.6694 10° North 206 237 8,000  Level Chicago Center
Fri 05:39:51 PM 43.0028 -88.6578 North 203 234 8,000  Level Chicago Center
Fri 05:40:54 PM 43.0586 -88.6467 North 203 234 8,000  Level Chicago Center
Fri 05:41:56 PM 43.1147 -88.6336 10° North 203 234 8,000  Level Chicago Center
Fri 05:42:58 PM 43.1786 -88.6108 15° North 203 234 8,000 -48 Level Chicago Center
Fri 05:44:00 PM 43.2306 -88.5864 19° North 200 230 7,900 -242 Descending Chicago Center
Fri 05:45:02 PM 43.2875 -88.5683 13° North 204 235 7,500 -677 Descending Chicago Center
Fri 05:46:04 PM 43.3475 -88.5467 15° North 213 245 6,500 -1,306 Descending Chicago Center
Fri 05:47:06 PM 43.4117 -88.5219 16° North 226 260 4,800 -1,742 Descending Chicago Center
Fri 05:48:08 PM 43.4792 -88.5003 13° North 232 267 2,900 -1,016 Descending Chicago Center
Fri 05:49:10 PM 43.5314 -88.4864 11° North 204 235 2,700 -97 Descending Chicago Center
Fri 05:50:12 PM 43.5794 -88.4872 359° North 181 208 2,700 -97 Level Chicago Center
Fri 05:51:14 PM 43.6322 -88.4864 North 168 193 2,500 -48 Descending Chicago Center
Fri 05:52:16 PM 43.6697 -88.4861 360° North 152 175 2,600 -145 Climbing Chicago Center
Fri 05:53:18 PM 43.7036 -88.4864 360° North 134 154 2,200 -484 Descending Chicago Center
Fri 05:54:20 PM 43.7342 -88.4856 North 118 136 1,600 -581 Descending Chicago Center
Fri 05:57:00 PM 43.7667 -88.4833 North  Level FlightAware Approximate
Fri 06:04:00 PM 43.7712 -88.4884 North  Level Estimated
Fri 06:05:00 PM 43.7667 -88.4833 North  Level FlightAware Approximate

Login

Don't have an account? Register now (free) for customized features, flight alerts, and more!